sensor_id;sensor_type;location;lat;lon;timestamp;pressure;altitude;pressure_sealevel;temperature;humidity
3254;BME280;1639;42.804;23.342;2023-02-13T07:12:47;76166.88;;;-148.52;100.00
3254;BME280;1639;42.804;23.342;2023-02-13T07:15:12;76158.59;;;-148.52;100.00
3254;BME280;1639;42.804;23.342;2023-02-13T07:17:38;76131.69;;;-148.52;100.00
3254;BME280;1639;42.804;23.342;2023-02-13T07:20:04;76096.47;;;-148.52;100.00
3254;BME280;1639;42.804;23.342;2023-02-13T07:22:31;76053.03;;;-148.52;100.00
3254;BME280;1639;42.804;23.342;2023-02-13T07:24:57;76009.56;;;-148.52;100.00
3254;BME280;1639;42.804;23.342;2023-02-13T07:27:23;75984.72;;;-148.52;100.00
3254;BME280;1639;42.804;23.342;2023-02-13T07:29:48;75968.16;;;-148.52;100.00
3254;BME280;1639;42.804;23.342;2023-02-13T07:32:14;75941.25;;;-148.52;100.00
3254;BME280;1639;42.804;23.342;2023-02-13T07:34:39;75930.91;;;-148.52;100.00
3254;BME280;1639;42.804;23.342;2023-02-13T07:37:04;75910.22;;;-148.52;100.00
3254;BME280;1639;42.804;23.342;2023-02-13T07:39:30;75883.31;;;-148.52;100.00
3254;BME280;1639;42.804;23.342;2023-02-13T07:41:55;75854.31;;;-148.52;100.00
3254;BME280;1639;42.804;23.342;2023-02-13T07:44:21;75833.63;;;-148.52;100.00
3254;BME280;1639;42.804;23.342;2023-02-13T07:46:46;75800.50;;;-148.52;100.00
3254;BME280;1639;42.804;23.342;2023-02-13T07:49:12;75779.81;;;-148.52;100.00
3254;BME280;1639;42.804;23.342;2023-02-13T07:51:37;75763.25;;;-148.52;100.00
3254;BME280;1639;42.804;23.342;2023-02-13T07:54:02;75759.13;;;-148.52;100.00
3254;BME280;1639;42.804;23.342;2023-02-13T07:56:28;75744.63;;;-148.52;100.00
3254;BME280;1639;42.804;23.342;2023-02-13T07:58:54;75761.19;;;-148.52;100.00
3254;BME280;1639;42.804;23.342;2023-02-13T08:01:19;75769.47;;;-148.52;100.00
3254;BME280;1639;42.804;23.342;2023-02-13T08:03:49;75717.72;;;-148.52;100.00
3254;BME280;1639;42.804;23.342;2023-02-13T08:06:18;75699.09;;;-148.52;100.00
3254;BME280;1639;42.804;23.342;2023-02-13T08:08:44;75686.69;;;-148.52;100.00
3254;BME280;1639;42.804;23.342;2023-02-13T08:11:30;75637.00;;;-148.52;100.00
3254;BME280;1639;42.804;23.342;2023-02-13T08:14:15;75624.59;;;-148.52;100.00
3254;BME280;1639;42.804;23.342;2023-02-13T08:16:40;75579.06;;;-148.52;100.00
3254;BME280;1639;42.804;23.342;2023-02-13T08:19:06;75529.41;;;-148.52;100.00
3254;BME280;1639;42.804;23.342;2023-02-13T08:21:31;75492.16;;;-148.52;100.00
3254;BME280;1639;42.804;23.342;2023-02-13T08:23:57;75454.91;;;-148.52;100.00
3254;BME280;1639;42.804;23.342;2023-02-13T08:26:23;75409.38;;;-148.52;100.00
3254;BME280;1639;42.804;23.342;2023-02-13T08:28:48;75372.13;;;-148.52;100.00
3254;BME280;1639;42.804;23.342;2023-02-13T08:31:13;75351.41;;;-148.52;100.00
3254;BME280;1639;42.804;23.342;2023-02-13T08:33:39;75349.34;;;-148.52;100.00
3254;BME280;1639;42.804;23.342;2023-02-13T08:36:06;75413.50;;;-148.52;100.00
3254;BME280;1639;42.804;23.342;2023-02-13T08:38:32;75442.47;;;-148.52;100.00
3254;BME280;1639;42.804;23.342;2023-02-13T08:40:57;75456.97;;;-148.52;100.00
3254;BME280;1639;42.804;23.342;2023-02-13T08:43:23;75477.66;;;-148.52;100.00
3254;BME280;1639;42.804;23.342;2023-02-13T08:45:48;75479.72;;;-148.52;100.00
3254;BME280;1639;42.804;23.342;2023-02-13T08:48:14;75479.72;;;-148.52;100.00
3254;BME280;1639;42.804;23.342;2023-02-13T08:50:39;75467.31;;;-148.52;100.00
3254;BME280;1639;42.804;23.342;2023-02-13T08:53:05;75465.25;;;-148.52;100.00
3254;BME280;1639;42.804;23.342;2023-02-13T08:55:30;75467.31;;;-148.52;100.00
3254;BME280;1639;42.804;23.342;2023-02-13T08:58:00;75459.03;;;-148.52;100.00
3254;BME280;1639;42.804;23.342;2023-02-13T09:00:26;75467.31;;;-148.52;100.00
3254;BME280;1639;42.804;23.342;2023-02-13T09:02:51;75461.09;;;-148.52;100.00
3254;BME280;1639;42.804;23.342;2023-02-13T09:05:17;75446.63;;;-148.52;100.00
3254;BME280;1639;42.804;23.342;2023-02-13T09:07:42;75436.28;;;-148.52;100.00
3254;BME280;1639;42.804;23.342;2023-02-13T09:10:08;75428.00;;;-148.52;100.00
3254;BME280;1639;42.804;23.342;2023-02-13T09:12:34;75450.75;;;-148.52;100.00
3254;BME280;1639;42.804;23.342;2023-02-13T09:14:59;75459.03;;;-148.52;100.00
3254;BME280;1639;42.804;23.342;2023-02-13T09:17:25;75479.72;;;-148.52;100.00
3254;BME280;1639;42.804;23.342;2023-02-13T09:19:50;75469.38;;;-148.52;100.00
3254;BME280;1639;42.804;23.342;2023-02-13T09:22:15;75452.81;;;-148.52;100.00
3254;BME280;1639;42.804;23.342;2023-02-13T09:24:41;75430.06;;;-148.52;100.00
3254;BME280;1639;42.804;23.342;2023-02-13T09:27:07;75425.91;;;-148.52;100.00
3254;BME280;1639;42.804;23.342;2023-02-13T09:29:33;75409.38;;;-148.52;100.00
3254;BME280;1639;42.804;23.342;2023-02-13T09:31:58;75401.09;;;-148.52;100.00
3254;BME280;1639;42.804;23.342;2023-02-13T09:34:24;75390.75;;;-148.52;100.00
3254;BME280;1639;42.804;23.342;2023-02-13T09:36:53;75409.38;;;-148.52;100.00
3254;BME280;1639;42.804;23.342;2023-02-13T09:39:18;75396.94;;;-148.52;100.00
3254;BME280;1639;42.804;23.342;2023-02-13T09:41:46;75388.66;;;-148.52;100.00
3254;BME280;1639;42.804;23.342;2023-02-13T09:47:35;75361.78;;;-148.52;100.00
3254;BME280;1639;42.804;23.342;2023-02-13T09:50:06;75347.28;;;-148.52;100.00
3254;BME280;1639;42.804;23.342;2023-02-13T09:52:36;75330.72;;;-148.52;100.00
3254;BME280;1639;42.804;23.342;2023-02-13T09:55:13;75297.63;;;-148.52;100.00
3254;BME280;1639;42.804;23.342;2023-02-13T10:00:20;75291.41;;;-148.52;100.00
3254;BME280;1639;42.804;23.342;2023-02-13T10:16:28;75229.31;;;-148.52;84.16
3254;BME280;1639;42.804;23.342;2023-02-13T10:19:02;75210.69;;;-148.52;75.13
3254;BME280;1639;42.804;23.342;2023-02-13T10:21:34;75212.78;;;-148.52;75.12
3254;BME280;1639;42.804;23.342;2023-02-13T10:26:38;75194.16;;;-148.52;74.24
3254;BME280;1639;42.804;23.342;2023-02-13T10:29:14;75175.53;;;-148.52;73.30
3254;BME280;1639;42.804;23.342;2023-02-13T10:32:03;75173.47;;;-148.52;71.95
3254;BME280;1639;42.804;23.342;2023-02-13T10:34:36;75165.19;;;-148.52;70.05
3254;BME280;1639;42.804;23.342;2023-02-13T10:37:10;75148.63;;;-148.52;69.54
3254;BME280;1639;42.804;23.342;2023-02-13T10:39:40;75127.94;;;-148.52;69.08
3254;BME280;1639;42.804;23.342;2023-02-13T10:42:40;75127.94;;;-148.52;68.44
3254;BME280;1639;42.804;23.342;2023-02-13T10:50:30;75115.50;;;-148.52;59.08
3254;BME280;1639;42.804;23.342;2023-02-13T10:56:05;75070.00;;;-148.52;57.97
3254;BME280;1639;42.804;23.342;2023-02-13T11:01:43;75072.06;;;-148.52;55.94
3254;BME280;1639;42.804;23.342;2023-02-13T11:04:17;75063.78;;;-148.52;56.10
3254;BME280;1639;42.804;23.342;2023-02-13T11:06:58;75051.38;;;-148.52;54.79
3254;BME280;1639;42.804;23.342;2023-02-13T11:09:24;75020.31;;;-148.52;54.24
3254;BME280;1639;42.804;23.342;2023-02-13T11:11:51;75001.69;;;-148.52;53.97
3254;BME280;1639;42.804;23.342;2023-02-13T11:14:18;75007.91;;;-148.52;53.53
3254;BME280;1639;42.804;23.342;2023-02-13T11:16:58;74995.50;;;-148.52;53.85
3254;BME280;1639;42.804;23.342;2023-02-13T11:19:31;74999.63;;;-148.52;53.64
3254;BME280;1639;42.804;23.342;2023-02-13T11:22:02;74981.00;;;-148.52;53.27
3254;BME280;1639;42.804;23.342;2023-02-13T11:24:29;74978.94;;;-148.52;52.59
3254;BME280;1639;42.804;23.342;2023-02-13T11:27:01;74970.66;;;-148.52;52.70
3254;BME280;1639;42.804;23.342;2023-02-13T11:29:32;74966.53;;;-148.52;52.56
3254;BME280;1639;42.804;23.342;2023-02-13T11:34:39;74937.56;;;-148.52;51.95
3254;BME280;1639;42.804;23.342;2023-02-13T11:37:23;74941.69;;;-148.52;52.30
3254;BME280;1639;42.804;23.342;2023-02-13T11:39:51;74937.56;;;-148.52;50.67
3254;BME280;1639;42.804;23.342;2023-02-13T11:42:35;74929.28;;;-148.52;50.67
3254;BME280;1639;42.804;23.342;2023-02-13T11:45:21;74925.16;;;-148.52;49.72
3254;BME280;1639;42.804;23.342;2023-02-13T11:47:47;74918.94;;;-148.52;49.77
3254;BME280;1639;42.804;23.342;2023-02-13T11:50:31;74912.72;;;-148.52;50.00
3254;BME280;1639;42.804;23.342;2023-02-13T11:53:18;74904.44;;;-148.52;49.65
3254;BME280;1639;42.804;23.342;2023-02-13T11:55:45;74906.53;;;-148.52;49.14
3254;BME280;1639;42.804;23.342;2023-02-13T11:58:27;74898.25;;;-148.52;50.05
3254;BME280;1639;42.804;23.342;2023-02-13T12:03:44;74883.75;;;-148.52;48.76
3254;BME280;1639;42.804;23.342;2023-02-13T12:06:20;74877.56;;;-148.52;49.16
3254;BME280;1639;42.804;23.342;2023-02-13T12:08:47;74871.34;;;-148.52;48.78
3254;BME280;1639;42.804;23.342;2023-02-13T12:14:01;74875.47;;;-148.52;47.94
3254;BME280;1639;42.804;23.342;2023-02-13T12:16:36;74873.41;;;-148.52;48.74
3254;BME280;1639;42.804;23.342;2023-02-13T12:19:05;74863.06;;;-148.52;48.90
3254;BME280;1639;42.804;23.342;2023-02-13T12:26:51;74825.81;;;-148.52;47.72
3254;BME280;1639;42.804;23.342;2023-02-13T12:32:53;74821.69;;;-148.52;47.77
3254;BME280;1639;42.804;23.342;2023-02-13T12:37:54;74805.13;;;-148.52;46.93
3254;BME280;1639;42.804;23.342;2023-02-13T12:46:24;74792.72;;;-148.52;46.28
3254;BME280;1639;42.804;23.342;2023-02-13T13:05:40;74757.53;;;-148.52;44.28
3254;BME280;1639;42.804;23.342;2023-02-13T13:08:15;74765.81;;;-148.52;44.12
3254;BME280;1639;42.804;23.342;2023-02-13T13:10:50;74769.94;;;-148.52;44.42
3254;BME280;1639;42.804;23.342;2023-02-13T13:22:01;74743.06;;;-148.52;43.72
3254;BME280;1639;42.804;23.342;2023-02-13T13:27:01;74745.13;;;-148.52;44.21
3254;BME280;1639;42.804;23.342;2023-02-13T13:29:43;74740.97;;;-148.52;43.79
3254;BME280;1639;42.804;23.342;2023-02-13T13:32:18;74728.56;;;-148.52;43.95
3254;BME280;1639;42.804;23.342;2023-02-13T13:34:45;74730.63;;;-148.52;44.28
3254;BME280;1639;42.804;23.342;2023-02-13T13:37:20;74728.56;;;-148.52;43.07
3254;BME280;1639;42.804;23.342;2023-02-13T13:39:56;74732.72;;;-148.52;43.96
3254;BME280;1639;42.804;23.342;2023-02-13T13:48:35;74734.78;;;-148.52;43.66
3254;BME280;1639;42.804;23.342;2023-02-13T13:51:06;74751.34;;;-148.52;43.75
3254;BME280;1639;42.804;23.342;2023-02-13T13:53:32;74751.34;;;-148.52;44.53
3254;BME280;1639;42.804;23.342;2023-02-13T13:56:00;74749.25;;;-148.52;44.95
3254;BME280;1639;42.804;23.342;2023-02-13T13:58:46;74751.34;;;-148.52;44.48
3254;BME280;1639;42.804;23.342;2023-02-13T14:01:21;74757.53;;;-148.52;44.81
3254;BME280;1639;42.804;23.342;2023-02-13T14:03:55;74757.53;;;-148.52;44.76
3254;BME280;1639;42.804;23.342;2023-02-13T14:06:26;74763.75;;;-148.52;44.86
3254;BME280;1639;42.804;23.342;2023-02-13T14:09:00;74763.75;;;-148.52;44.94
3254;BME280;1639;42.804;23.342;2023-02-13T14:16:58;74767.88;;;-148.52;45.08
3254;BME280;1639;42.804;23.342;2023-02-13T14:19:35;74769.94;;;-148.52;44.73
3254;BME280;1639;42.804;23.342;2023-02-13T14:22:34;74788.56;;;-148.52;45.47
3254;BME280;1639;42.804;23.342;2023-02-13T14:25:04;74786.50;;;-148.52;45.91
3254;BME280;1639;42.804;23.342;2023-02-13T14:27:32;74769.94;;;-148.52;46.27
3254;BME280;1639;42.804;23.342;2023-02-13T14:29:59;74767.88;;;-148.52;45.44
3254;BME280;1639;42.804;23.342;2023-02-13T14:32:32;74767.88;;;-148.52;45.42
3254;BME280;1639;42.804;23.342;2023-02-13T14:35:05;74776.16;;;-148.52;45.34
3254;BME280;1639;42.804;23.342;2023-02-13T14:37:57;74786.50;;;-148.52;45.36
3254;BME280;1639;42.804;23.342;2023-02-13T14:40:29;74780.31;;;-148.52;45.62
3254;BME280;1639;42.804;23.342;2023-02-13T14:43:20;74786.50;;;-148.52;46.43
3254;BME280;1639;42.804;23.342;2023-02-13T14:45:52;74784.44;;;-148.52;45.89
3254;BME280;1639;42.804;23.342;2023-02-13T14:48:19;74796.84;;;-148.52;46.57
3254;BME280;1639;42.804;23.342;2023-02-13T14:50:48;74796.84;;;-148.52;46.89
3254;BME280;1639;42.804;23.342;2023-02-13T14:53:19;74798.91;;;-148.52;46.83
3254;BME280;1639;42.804;23.342;2023-02-13T14:55:52;74807.19;;;-148.52;47.15
3254;BME280;1639;42.804;23.342;2023-02-13T15:00:56;74817.53;;;-148.52;46.82
3254;BME280;1639;42.804;23.342;2023-02-13T15:03:27;74829.97;;;-148.52;47.16
3254;BME280;1639;42.804;23.342;2023-02-13T15:05:58;74842.38;;;-148.52;46.84
3254;BME280;1639;42.804;23.342;2023-02-13T15:08:28;74836.16;;;-148.52;47.60
3254;BME280;1639;42.804;23.342;2023-02-13T15:10:56;74867.22;;;-148.52;47.63
3254;BME280;1639;42.804;23.342;2023-02-13T15:13:25;74867.22;;;-148.52;48.18
3254;BME280;1639;42.804;23.342;2023-02-13T15:15:53;74875.47;;;-148.52;48.73
3254;BME280;1639;42.804;23.342;2023-02-13T15:18:28;74885.81;;;-148.52;48.29
3254;BME280;1639;42.804;23.342;2023-02-13T15:20:55;74892.03;;;-148.52;48.36
3254;BME280;1639;42.804;23.342;2023-02-13T15:23:25;74902.38;;;-148.52;48.83
3254;BME280;1639;42.804;23.342;2023-02-13T15:26:18;74908.59;;;-148.52;49.38
3254;BME280;1639;42.804;23.342;2023-02-13T15:28:58;74916.88;;;-148.52;49.21
3254;BME280;1639;42.804;23.342;2023-02-13T15:31:29;74929.28;;;-148.52;49.25
3254;BME280;1639;42.804;23.342;2023-02-13T15:33:55;74941.69;;;-148.52;49.75
3254;BME280;1639;42.804;23.342;2023-02-13T15:36:25;74960.31;;;-148.52;49.66
3254;BME280;1639;42.804;23.342;2023-02-13T15:39:01;74976.88;;;-148.52;50.22
3254;BME280;1639;42.804;23.342;2023-02-13T15:41:39;74974.81;;;-148.52;49.69
3254;BME280;1639;42.804;23.342;2023-02-13T15:44:06;74999.63;;;-148.52;50.11
3254;BME280;1639;42.804;23.342;2023-02-13T15:46:34;75009.97;;;-148.52;50.58
3254;BME280;1639;42.804;23.342;2023-02-13T15:49:05;75032.75;;;-148.52;50.87
3254;BME280;1639;42.804;23.342;2023-02-13T15:51:30;75036.88;;;-148.52;50.68
3254;BME280;1639;42.804;23.342;2023-02-13T15:53:59;75051.38;;;-148.52;50.95
3254;BME280;1639;42.804;23.342;2023-02-13T15:56:25;75067.91;;;-148.52;51.40
3254;BME280;1639;42.804;23.342;2023-02-13T15:58:52;75080.34;;;-148.52;51.78
3254;BME280;1639;42.804;23.342;2023-02-13T16:01:19;75094.81;;;-148.52;52.06
3254;BME280;1639;42.804;23.342;2023-02-13T16:03:47;75109.31;;;-148.52;52.19
3254;BME280;1639;42.804;23.342;2023-02-13T16:06:18;75123.78;;;-148.52;52.38
3254;BME280;1639;42.804;23.342;2023-02-13T16:08:56;75130.00;;;-148.52;52.36
3254;BME280;1639;42.804;23.342;2023-02-13T16:11:38;75138.28;;;-148.52;52.42
3254;BME280;1639;42.804;23.342;2023-02-13T16:14:14;75146.56;;;-148.52;52.84
3254;BME280;1639;42.804;23.342;2023-02-13T16:16:51;75161.03;;;-148.52;52.93
3254;BME280;1639;42.804;23.342;2023-02-13T16:21:59;75192.06;;;-148.52;52.74
3254;BME280;1639;42.804;23.342;2023-02-13T16:24:26;75216.91;;;-148.52;53.01
3254;BME280;1639;42.804;23.342;2023-02-13T16:26:52;75231.41;;;-148.52;52.93
3254;BME280;1639;42.804;23.342;2023-02-13T16:29:23;75247.94;;;-148.52;53.46
3254;BME280;1639;42.804;23.342;2023-02-13T16:31:51;75266.56;;;-148.52;53.64
3254;BME280;1639;42.804;23.342;2023-02-13T16:34:28;75281.06;;;-148.52;53.58
3254;BME280;1639;42.804;23.342;2023-02-13T16:36:54;75293.47;;;-148.52;54.94
3254;BME280;1639;42.804;23.342;2023-02-13T16:39:26;75297.63;;;-148.52;54.79
3254;BME280;1639;42.804;23.342;2023-02-13T16:41:53;75303.81;;;-148.52;55.74
3254;BME280;1639;42.804;23.342;2023-02-13T16:47:03;75299.69;;;-148.52;56.83
3254;BME280;1639;42.804;23.342;2023-02-13T16:49:31;75305.91;;;-148.52;57.59
3254;BME280;1639;42.804;23.342;2023-02-13T16:51:58;75307.97;;;-148.52;57.55
3254;BME280;1639;42.804;23.342;2023-02-13T17:02:25;75324.53;;;-148.52;58.05
3254;BME280;1639;42.804;23.342;2023-02-13T17:07:30;75349.34;;;-148.52;58.18
3254;BME280;1639;42.804;23.342;2023-02-13T17:10:04;75359.69;;;-148.52;58.62
3254;BME280;1639;42.804;23.342;2023-02-13T17:12:31;75351.41;;;-148.52;58.38
3254;BME280;1639;42.804;23.342;2023-02-13T17:14:59;75359.69;;;-148.52;58.35
3254;BME280;1639;42.804;23.342;2023-02-13T17:17:30;75376.25;;;-148.52;58.63
3254;BME280;1639;42.804;23.342;2023-02-13T17:19:57;75378.31;;;-148.52;58.88
3254;BME280;1639;42.804;23.342;2023-02-13T17:22:30;75378.31;;;-148.52;58.74
3254;BME280;1639;42.804;23.342;2023-02-13T17:24:58;75396.94;;;-148.52;59.78
3254;BME280;1639;42.804;23.342;2023-02-13T17:27:24;75392.81;;;-148.52;59.97
3254;BME280;1639;42.804;23.342;2023-02-13T17:29:49;75392.81;;;-148.52;59.67
3254;BME280;1639;42.804;23.342;2023-02-13T17:32:17;75390.75;;;-148.52;59.84
3254;BME280;1639;42.804;23.342;2023-02-13T17:34:44;75403.16;;;-148.52;59.99
3254;BME280;1639;42.804;23.342;2023-02-13T17:37:25;75409.38;;;-148.52;60.29
3254;BME280;1639;42.804;23.342;2023-02-13T17:39:51;75413.50;;;-148.52;59.99
3254;BME280;1639;42.804;23.342;2023-02-13T17:42:23;75413.50;;;-148.52;60.73
3254;BME280;1639;42.804;23.342;2023-02-13T17:44:49;75417.66;;;-148.52;60.10
3254;BME280;1639;42.804;23.342;2023-02-13T17:47:14;75452.81;;;-148.52;59.97
3254;BME280;1639;42.804;23.342;2023-02-13T17:49:40;75475.59;;;-148.52;60.53
3254;BME280;1639;42.804;23.342;2023-02-13T17:52:06;75492.16;;;-148.52;61.26
3254;BME280;1639;42.804;23.342;2023-02-13T17:54:31;75510.78;;;-148.52;61.63
3254;BME280;1639;42.804;23.342;2023-02-13T17:57:00;75529.41;;;-148.52;62.88
3254;BME280;1639;42.804;23.342;2023-02-13T17:59:27;75541.81;;;-148.52;63.25
3254;BME280;1639;42.804;23.342;2023-02-13T18:01:52;75545.94;;;-148.52;63.41
3254;BME280;1639;42.804;23.342;2023-02-13T18:04:17;75545.94;;;-148.52;63.76
3254;BME280;1639;42.804;23.342;2023-02-13T18:06:43;75539.75;;;-148.52;64.81
3254;BME280;1639;42.804;23.342;2023-02-13T18:09:08;75539.75;;;-148.52;64.64
3254;BME280;1639;42.804;23.342;2023-02-13T18:11:34;75537.69;;;-148.52;65.16
3254;BME280;1639;42.804;23.342;2023-02-13T18:13:59;75537.69;;;-148.52;65.13
3254;BME280;1639;42.804;23.342;2023-02-13T18:16:26;75550.09;;;-148.52;65.21
3254;BME280;1639;42.804;23.342;2023-02-13T18:18:51;75541.81;;;-148.52;66.52
3254;BME280;1639;42.804;23.342;2023-02-13T18:21:21;75548.03;;;-148.52;64.83
3254;BME280;1639;42.804;23.342;2023-02-13T18:23:46;75562.50;;;-148.52;63.66
3254;BME280;1639;42.804;23.342;2023-02-13T18:26:11;75570.78;;;-148.52;64.10
3254;BME280;1639;42.804;23.342;2023-02-13T18:28:37;75585.28;;;-148.52;64.03
3254;BME280;1639;42.804;23.342;2023-02-13T18:31:02;75595.63;;;-148.52;64.03
3254;BME280;1639;42.804;23.342;2023-02-13T18:33:28;75624.59;;;-148.52;64.43
3254;BME280;1639;42.804;23.342;2023-02-13T18:35:58;75632.88;;;-148.52;65.43
3254;BME280;1639;42.804;23.342;2023-02-13T18:38:24;75637.00;;;-148.52;65.53
3254;BME280;1639;42.804;23.342;2023-02-13T18:40:49;75637.00;;;-148.52;66.06
3254;BME280;1639;42.804;23.342;2023-02-13T18:43:15;75645.28;;;-148.52;65.94
3254;BME280;1639;42.804;23.342;2023-02-13T18:45:40;75659.78;;;-148.52;66.27
3254;BME280;1639;42.804;23.342;2023-02-13T18:48:05;75663.91;;;-148.52;66.42
3254;BME280;1639;42.804;23.342;2023-02-13T18:50:31;75670.13;;;-148.52;67.58
3254;BME280;1639;42.804;23.342;2023-02-13T18:52:56;75670.13;;;-148.52;67.66
3254;BME280;1639;42.804;23.342;2023-02-13T18:55:22;75690.81;;;-148.52;66.73
3254;BME280;1639;42.804;23.342;2023-02-13T18:57:51;75736.34;;;-148.52;66.38
3254;BME280;1639;42.804;23.342;2023-02-13T19:00:16;75748.78;;;-148.52;67.10
3254;BME280;1639;42.804;23.342;2023-02-13T19:02:42;75771.53;;;-148.52;68.27
3254;BME280;1639;42.804;23.342;2023-02-13T19:05:07;75794.31;;;-148.52;69.81
3254;BME280;1639;42.804;23.342;2023-02-13T19:07:33;75810.88;;;-148.52;71.14
3254;BME280;1639;42.804;23.342;2023-02-13T19:09:58;75815.00;;;-148.52;72.86
3254;BME280;1639;42.804;23.342;2023-02-13T19:12:23;75827.41;;;-148.52;73.86
3254;BME280;1639;42.804;23.342;2023-02-13T19:14:49;75827.41;;;-148.52;74.87
3254;BME280;1639;42.804;23.342;2023-02-13T19:17:14;75825.34;;;-148.52;75.91
3254;BME280;1639;42.804;23.342;2023-02-13T19:19:40;75831.56;;;-148.52;76.91
3254;BME280;1639;42.804;23.342;2023-02-13T19:22:05;75815.00;;;-148.52;75.95
3254;BME280;1639;42.804;23.342;2023-02-13T19:24:30;75808.78;;;-148.52;74.94
3254;BME280;1639;42.804;23.342;2023-02-13T19:26:56;75800.50;;;-148.52;73.56
3254;BME280;1639;42.804;23.342;2023-02-13T19:29:21;75798.44;;;-148.52;72.74
3254;BME280;1639;42.804;23.342;2023-02-13T19:31:47;75794.31;;;-148.52;72.76
3254;BME280;1639;42.804;23.342;2023-02-13T19:34:12;75794.31;;;-148.52;72.04
3254;BME280;1639;42.804;23.342;2023-02-13T19:36:37;75804.66;;;-148.52;71.54
3254;BME280;1639;42.804;23.342;2023-02-13T19:39:04;75827.41;;;-148.52;72.10
3254;BME280;1639;42.804;23.342;2023-02-13T19:41:31;75856.41;;;-148.52;74.70
3254;BME280;1639;42.804;23.342;2023-02-13T19:43:57;75846.03;;;-148.52;75.15
3254;BME280;1639;42.804;23.342;2023-02-13T19:46:25;75858.47;;;-148.52;76.12
3254;BME280;1639;42.804;23.342;2023-02-13T19:48:51;75864.69;;;-148.52;77.62
3254;BME280;1639;42.804;23.342;2023-02-13T19:51:19;75864.69;;;-148.52;79.16
3254;BME280;1639;42.804;23.342;2023-02-13T19:53:45;75862.59;;;-148.52;79.09
3254;BME280;1639;42.804;23.342;2023-02-13T19:56:11;75856.41;;;-148.52;79.40
3254;BME280;1639;42.804;23.342;2023-02-13T19:58:38;75850.19;;;-148.52;78.68
3254;BME280;1639;42.804;23.342;2023-02-13T20:01:09;75846.03;;;-148.52;78.36
3254;BME280;1639;42.804;23.342;2023-02-13T20:03:35;75862.59;;;-148.52;78.06
3254;BME280;1639;42.804;23.342;2023-02-13T20:06:21;75875.03;;;-148.52;77.49
3254;BME280;1639;42.804;23.342;2023-02-13T20:08:47;75877.09;;;-148.52;77.75
3254;BME280;1639;42.804;23.342;2023-02-13T20:11:14;75860.53;;;-148.52;78.76
3254;BME280;1639;42.804;23.342;2023-02-13T20:13:40;75839.84;;;-148.52;78.60
3254;BME280;1639;42.804;23.342;2023-02-13T20:16:08;75825.34;;;-148.52;76.63
3254;BME280;1639;42.804;23.342;2023-02-13T20:18:35;75819.13;;;-148.52;75.24
3254;BME280;1639;42.804;23.342;2023-02-13T20:21:08;75810.88;;;-148.52;73.97
3254;BME280;1639;42.804;23.342;2023-02-13T20:23:34;75817.06;;;-148.52;73.99
3254;BME280;1639;42.804;23.342;2023-02-13T20:26:10;75821.22;;;-148.52;74.21
3254;BME280;1639;42.804;23.342;2023-02-13T20:28:38;75829.50;;;-148.52;74.89
3254;BME280;1639;42.804;23.342;2023-02-13T20:31:15;75825.34;;;-148.52;76.16
3254;BME280;1639;42.804;23.342;2023-02-13T20:33:41;75829.50;;;-148.52;77.28
3254;BME280;1639;42.804;23.342;2023-02-13T20:36:11;75819.13;;;-148.52;77.67
3254;BME280;1639;42.804;23.342;2023-02-13T20:38:37;75808.78;;;-148.52;77.37
3254;BME280;1639;42.804;23.342;2023-02-13T20:41:23;75806.72;;;-148.52;76.21
3254;BME280;1639;42.804;23.342;2023-02-13T20:43:49;75810.88;;;-148.52;76.86
3254;BME280;1639;42.804;23.342;2023-02-13T20:46:15;75817.06;;;-148.52;78.12
3254;BME280;1639;42.804;23.342;2023-02-13T20:48:46;75810.88;;;-148.52;79.51
3254;BME280;1639;42.804;23.342;2023-02-13T20:51:13;75794.31;;;-148.52;79.32
3254;BME280;1639;42.804;23.342;2023-02-13T20:53:40;75779.81;;;-148.52;77.45
3254;BME280;1639;42.804;23.342;2023-02-13T20:56:08;75775.69;;;-148.52;75.85
3254;BME280;1639;42.804;23.342;2023-02-13T20:58:37;75777.75;;;-148.52;74.09
3254;BME280;1639;42.804;23.342;2023-02-13T21:01:14;75779.81;;;-148.52;73.45
3254;BME280;1639;42.804;23.342;2023-02-13T21:03:40;75781.88;;;-148.52;72.69
3254;BME280;1639;42.804;23.342;2023-02-13T21:06:07;75783.97;;;-148.52;71.86
3254;BME280;1639;42.804;23.342;2023-02-13T21:08:32;75800.50;;;-148.52;72.29
3254;BME280;1639;42.804;23.342;2023-02-13T21:11:02;75802.59;;;-148.52;71.68
3254;BME280;1639;42.804;23.342;2023-02-13T21:13:28;75800.50;;;-148.52;70.97
3254;BME280;1639;42.804;23.342;2023-02-13T21:15:55;75812.94;;;-148.52;71.68
3254;BME280;1639;42.804;23.342;2023-02-13T21:18:27;75806.72;;;-148.52;72.04
3254;BME280;1639;42.804;23.342;2023-02-13T21:20:52;75823.28;;;-148.52;70.89
3254;BME280;1639;42.804;23.342;2023-02-13T21:23:19;75839.84;;;-148.52;71.00
3254;BME280;1639;42.804;23.342;2023-02-13T21:25:44;75837.75;;;-148.52;69.58
3254;BME280;1639;42.804;23.342;2023-02-13T21:28:10;75854.31;;;-148.52;70.26
3254;BME280;1639;42.804;23.342;2023-02-13T21:30:35;75864.69;;;-148.52;70.67
3254;BME280;1639;42.804;23.342;2023-02-13T21:33:00;75881.22;;;-148.52;71.54
3254;BME280;1639;42.804;23.342;2023-02-13T21:35:26;75877.09;;;-148.52;70.33
3254;BME280;1639;42.804;23.342;2023-02-13T21:37:51;75877.09;;;-148.52;70.54
3254;BME280;1639;42.804;23.342;2023-02-13T21:40:16;75901.94;;;-148.52;71.61
3254;BME280;1639;42.804;23.342;2023-02-13T21:42:42;75914.34;;;-148.52;73.80
3254;BME280;1639;42.804;23.342;2023-02-13T21:45:08;75906.06;;;-148.52;73.01
3254;BME280;1639;42.804;23.342;2023-02-13T21:47:35;75916.41;;;-148.52;72.70
3254;BME280;1639;42.804;23.342;2023-02-13T21:50:03;75920.56;;;-148.52;77.90
3254;BME280;1639;42.804;23.342;2023-02-13T21:52:28;75891.56;;;-148.52;80.97
3254;BME280;1639;42.804;23.342;2023-02-13T21:54:54;75872.94;;;-148.52;81.10
3254;BME280;1639;42.804;23.342;2023-02-13T21:57:19;75868.81;;;-148.52;79.67
3254;BME280;1639;42.804;23.342;2023-02-13T21:59:44;75862.59;;;-148.52;76.43
3254;BME280;1639;42.804;23.342;2023-02-13T22:02:10;75864.69;;;-148.52;76.67
3254;BME280;1639;42.804;23.342;2023-02-13T22:04:35;75862.59;;;-148.52;80.75
3254;BME280;1639;42.804;23.342;2023-02-13T22:07:01;75862.59;;;-148.52;81.35